Time;durP1;ratioP1;P1;durP2;ratioP2;P2;SDS_P1;SDS_P2;PMS_P1;PMS_P2;Temp;Humidity;BMP_temperature;BMP_pressure;BME280_temperature;BME280_humidity;BME280_pressure;Samples;Min_cycle;Max_cycle;Signal;HPM_P1;HPM_P2
2023/01/30 00:00:59;;;;;;;;;;;4.90;99.90;;;;;;5019085;28;19917;-79
2023/01/30 00:03:25;;;;;;;;;;;4.90;99.90;;;;;;5036304;28;19913;-79
2023/01/30 00:05:50;;;;;;;;;;;4.90;99.90;;;;;;5036548;28;20007;-79
2023/01/30 00:08:16;;;;;;;;;;;4.90;99.90;;;;;;5018933;28;19959;-79
2023/01/30 00:10:42;;;;;;;;;;;5.00;99.90;;;;;;5037221;28;20004;-79
2023/01/30 00:13:08;;;;;;;;;;;5.10;99.90;;;;;;5018149;28;19909;-79
2023/01/30 00:15:33;;;;;;;;;;;5.10;99.90;;;;;;5018246;28;19910;-79
2023/01/30 00:17:59;;;;;;;;;;;5.00;99.90;;;;;;5019121;28;20290;-79
2023/01/30 00:20:24;;;;;;;;;;;5.00;99.90;;;;;;5036872;28;19909;-80
2023/01/30 00:22:49;;;;;;;;;;;5.00;99.90;;;;;;5017803;28;20340;-79
2023/01/30 00:25:15;;;;;;;;;;;5.00;99.90;;;;;;5036470;28;20051;-79
2023/01/30 00:27:40;;;;;;;;;;;5.10;99.90;;;;;;5038894;28;20279;-80
2023/01/30 00:30:06;;;;;;;;;;;5.10;99.90;;;;;;5022594;28;19909;-79
2023/01/30 00:32:32;;;;;;;;;;;5.20;99.90;;;;;;5039525;28;20331;-79
2023/01/30 00:34:58;;;;;;;;;;;5.20;99.90;;;;;;5021555;28;19955;-79
2023/01/30 00:37:23;;;;;;;;;;;5.20;99.90;;;;;;5039652;28;19909;-79
2023/01/30 00:39:49;;;;;;;;;;;5.20;99.90;;;;;;5021485;28;20541;-79
2023/01/30 00:47:42;;;;;;;;;;;5.30;99.90;;;;;;5040050;28;19967;-79
2023/01/30 00:50:09;;;;;;;;;;;5.20;99.90;;;;;;5038719;28;19995;-79
2023/01/30 00:52:35;;;;;;;;;;;5.20;99.90;;;;;;5020646;28;20434;-79
2023/01/30 00:55:00;;;;;;;;;;;5.30;99.90;;;;;;5021315;28;19952;-79
2023/01/30 00:57:26;;;;;;;;;;;5.20;99.90;;;;;;5020918;28;19915;-80
2023/01/30 00:59:51;;;;;;;;;;;5.30;99.90;;;;;;5039449;28;19944;-80
2023/01/30 01:02:17;;;;;;;;;;;5.30;99.90;;;;;;5038641;28;19953;-80
2023/01/30 01:04:42;;;;;;;;;;;5.20;99.90;;;;;;5038212;28;19924;-80
2023/01/30 01:07:08;;;;;;;;;;;5.30;99.90;;;;;;5038769;28;19963;-79
2023/01/30 01:09:34;;;;;;;;;;;5.30;99.90;;;;;;5038786;28;20414;-80
2023/01/30 01:11:59;;;;;;;;;;;5.30;99.90;;;;;;5038802;28;19949;-79
2023/01/30 01:14:25;;;;;;;;;;;5.30;99.90;;;;;;5038489;28;20011;-80
2023/01/30 01:16:50;;;;;;;;;;;5.20;99.90;;;;;;5020109;28;19916;-80
2023/01/30 01:19:16;;;;;;;;;;;5.30;99.90;;;;;;5020938;28;19909;-79
2023/01/30 01:21:41;;;;;;;;;;;5.30;99.90;;;;;;5020120;28;20111;-79
2023/01/30 01:24:10;;;;;;;;;;;5.30;99.90;;;;;;5020023;28;19913;-79
2023/01/30 01:26:35;;;;;;;;;;;5.40;99.90;;;;;;5037914;28;20382;-79
2023/01/30 01:29:01;;;;;;;;;;;5.40;99.90;;;;;;5037955;28;19909;-79
2023/01/30 01:31:26;;;;;;;;;;;5.40;99.90;;;;;;5020088;28;19909;-79
2023/01/30 01:33:52;;;;;;;;;;;5.30;99.90;;;;;;5038010;28;19920;-79
2023/01/30 01:36:17;;;;;;;;;;;5.40;99.90;;;;;;5019713;28;19913;-80
2023/01/30 01:38:43;;;;;;;;;;;5.30;99.90;;;;;;5037171;28;19909;-79
2023/01/30 01:41:10;;;;;;;;;;;5.30;99.90;;;;;;5037579;28;20391;-79
2023/01/30 01:43:37;;;;;;;;;;;5.30;99.90;;;;;;5037764;28;19913;-79
2023/01/30 01:46:13;;;;;;;;;;;5.40;99.90;;;;;;5019382;28;19909;-79
2023/01/30 01:48:45;;;;;;;;;;;5.30;99.90;;;;;;5020119;28;20334;-80
2023/01/30 01:51:14;;;;;;;;;;;5.30;99.90;;;;;;5019149;28;19910;-79
2023/01/30 01:53:43;;;;;;;;;;;5.30;99.90;;;;;;5037565;28;20537;-79
2023/01/30 01:56:09;;;;;;;;;;;5.40;99.90;;;;;;5037594;28;20000;-80
2023/01/30 01:58:37;;;;;;;;;;;5.40;99.90;;;;;;5019497;28;19909;-79
2023/01/30 02:01:03;;;;;;;;;;;5.40;99.90;;;;;;5018950;28;19924;-80
2023/01/30 02:03:31;;;;;;;;;;;5.50;99.90;;;;;;5019017;28;20345;-79
2023/01/30 02:05:59;;;;;;;;;;;5.40;99.90;;;;;;5019344;28;20055;-80
2023/01/30 02:08:28;;;;;;;;;;;5.40;99.90;;;;;;5037308;28;19910;-79
2023/01/30 02:11:06;;;;;;;;;;;5.40;99.90;;;;;;5019095;28;19917;-79
2023/01/30 02:13:31;;;;;;;;;;;5.40;99.90;;;;;;5019035;28;19910;-79
2023/01/30 02:15:58;;;;;;;;;;;5.40;99.90;;;;;;5037178;28;19916;-80
2023/01/30 02:18:24;;;;;;;;;;;5.40;99.90;;;;;;5019426;28;20514;-80
2023/01/30 02:20:52;;;;;;;;;;;5.40;99.90;;;;;;5019299;28;19910;-79
2023/01/30 02:23:36;;;;;;;;;;;5.40;99.90;;;;;;5036139;28;20020;-79
2023/01/30 02:26:05;;;;;;;;;;;5.40;99.90;;;;;;5018370;28;20386;-80
2023/01/30 02:28:42;;;;;;;;;;;5.40;99.90;;;;;;5018019;28;19924;-79
2023/01/30 02:31:16;;;;;;;;;;;5.40;99.90;;;;;;5035990;28;19909;-79
2023/01/30 02:33:49;;;;;;;;;;;5.30;99.90;;;;;;5019089;28;19913;-80
2023/01/30 02:36:18;;;;;;;;;;;5.40;99.90;;;;;;5018814;28;20374;-79
2023/01/30 02:39:01;;;;;;;;;;;5.40;99.90;;;;;;5036780;28;19909;-79
2023/01/30 02:41:29;;;;;;;;;;;5.30;99.90;;;;;;5036131;28;19909;-79
2023/01/30 02:44:02;;;;;;;;;;;5.30;99.90;;;;;;5036654;28;19913;-80
2023/01/30 02:46:45;;;;;;;;;;;5.20;99.90;;;;;;5035852;28;19913;-80
2023/01/30 02:49:19;;;;;;;;;;;5.20;99.90;;;;;;5017564;28;19949;-80
2023/01/30 02:51:46;;;;;;;;;;;5.20;99.90;;;;;;5035563;28;20294;-79
2023/01/30 02:54:12;;;;;;;;;;;5.20;99.90;;;;;;5035692;28;19909;-79
2023/01/30 02:56:44;;;;;;;;;;;5.20;99.90;;;;;;5036059;28;19971;-79
2023/01/30 02:59:11;;;;;;;;;;;5.30;99.90;;;;;;5017599;28;19913;-79
2023/01/30 03:01:57;;;;;;;;;;;5.20;99.90;;;;;;5035142;28;19913;-79
2023/01/30 03:04:26;;;;;;;;;;;5.20;99.90;;;;;;5017009;28;19917;-79
2023/01/30 03:06:54;;;;;;;;;;;5.20;99.90;;;;;;5017754;28;19913;-79
2023/01/30 03:09:29;;;;;;;;;;;5.20;99.90;;;;;;5017604;28;19909;-79
2023/01/30 03:12:02;;;;;;;;;;;5.30;99.90;;;;;;5017439;28;19996;-80
2023/01/30 03:14:31;;;;;;;;;;;5.30;99.90;;;;;;5017638;28;19946;-78
2023/01/30 03:16:58;;;;;;;;;;;5.30;99.90;;;;;;5017172;28;19917;-79
2023/01/30 03:19:25;;;;;;;;;;;5.30;99.90;;;;;;5013553;28;19960;-79
2023/01/30 03:21:50;;;;;;;;;;;5.40;99.90;;;;;;5013959;28;19909;-79
2023/01/30 03:24:16;;;;;;;;;;;5.40;99.90;;;;;;5015103;28;19914;-79
2023/01/30 03:26:47;;;;;;;;;;;5.50;99.90;;;;;;5034982;28;20006;-78
2023/01/30 03:29:13;;;;;;;;;;;5.50;99.90;;;;;;5035198;28;19940;-79
2023/01/30 03:31:38;;;;;;;;;;;5.40;99.90;;;;;;5035004;28;19955;-79
2023/01/30 03:34:04;;;;;;;;;;;5.40;99.90;;;;;;5017663;28;19909;-79
2023/01/30 03:36:29;;;;;;;;;;;5.50;99.90;;;;;;5017390;28;20008;-79
2023/01/30 03:38:55;;;;;;;;;;;5.50;99.90;;;;;;5035003;28;19916;-80
2023/01/30 03:41:20;;;;;;;;;;;5.50;99.90;;;;;;5017269;28;20385;-79
2023/01/30 03:43:46;;;;;;;;;;;5.50;99.90;;;;;;5016600;28;19917;-79
2023/01/30 03:46:11;;;;;;;;;;;5.50;99.90;;;;;;5017265;28;20422;-79
2023/01/30 03:48:36;;;;;;;;;;;5.60;99.90;;;;;;5034583;28;19913;-79
2023/01/30 03:51:02;;;;;;;;;;;5.60;99.90;;;;;;5034209;28;19916;-79
2023/01/30 03:53:27;;;;;;;;;;;5.60;99.90;;;;;;5016786;28;19910;-79
2023/01/30 03:55:53;;;;;;;;;;;5.70;99.90;;;;;;5016254;28;20359;-79
2023/01/30 03:58:18;;;;;;;;;;;5.60;99.90;;;;;;5034556;28;19909;-79
2023/01/30 04:00:44;;;;;;;;;;;5.70;99.90;;;;;;5016428;28;19921;-79
2023/01/30 04:03:09;;;;;;;;;;;5.60;99.90;;;;;;5037464;28;20016;-79
2023/01/30 04:05:35;;;;;;;;;;;5.70;99.90;;;;;;5020338;28;20333;-79
2023/01/30 04:08:00;;;;;;;;;;;5.70;99.90;;;;;;5038345;28;19949;-80
2023/01/30 04:10:26;;;;;;;;;;;5.60;99.90;;;;;;5037820;28;19913;-79
2023/01/30 04:12:51;;;;;;;;;;;5.60;99.90;;;;;;5037890;28;20430;-79
2023/01/30 04:15:17;;;;;;;;;;;5.60;99.90;;;;;;5019927;28;19948;-79
2023/01/30 04:17:42;;;;;;;;;;;5.60;99.90;;;;;;5038249;28;19909;-79
2023/01/30 04:20:08;;;;;;;;;;;5.70;99.90;;;;;;5037900;28;19924;-79
2023/01/30 04:22:34;;;;;;;;;;;5.60;99.90;;;;;;5036876;28;19909;-80
2023/01/30 04:24:59;;;;;;;;;;;5.60;99.90;;;;;;5037464;28;20397;-79
2023/01/30 04:27:25;;;;;;;;;;;5.60;99.90;;;;;;5037699;28;19909;-80
2023/01/30 04:29:50;;;;;;;;;;;5.50;99.90;;;;;;5019869;28;19983;-79
2023/01/30 04:32:15;;;;;;;;;;;5.60;99.90;;;;;;5037562;28;19916;-79
2023/01/30 04:34:42;;;;;;;;;;;5.50;99.90;;;;;;5037700;28;19914;-78
2023/01/30 04:37:08;;;;;;;;;;;5.50;99.90;;;;;;5037970;28;20294;-79
2023/01/30 04:39:33;;;;;;;;;;;5.50;99.90;;;;;;5037645;28;19960;-79
2023/01/30 04:41:59;;;;;;;;;;;5.50;99.90;;;;;;5019300;28;20334;-79
2023/01/30 04:44:24;;;;;;;;;;;5.60;99.90;;;;;;5037305;28;19971;-79
2023/01/30 04:46:49;;;;;;;;;;;5.50;99.90;;;;;;5019690;28;19909;-79
2023/01/30 04:49:15;;;;;;;;;;;5.50;99.90;;;;;;5019133;28;19968;-80
2023/01/30 04:51:40;;;;;;;;;;;5.50;99.90;;;;;;5036688;28;19920;-80
2023/01/30 04:54:06;;;;;;;;;;;5.50;99.90;;;;;;5036702;28;19910;-79
2023/01/30 04:56:31;;;;;;;;;;;5.50;99.90;;;;;;5018790;28;19913;-79
2023/01/30 04:58:57;;;;;;;;;;;5.50;99.90;;;;;;5019010;28;20326;-79
2023/01/30 05:01:23;;;;;;;;;;;5.40;99.90;;;;;;5018553;28;19919;-79
2023/01/30 05:03:50;;;;;;;;;;;5.40;99.90;;;;;;5018663;28;19959;-79
2023/01/30 05:06:15;;;;;;;;;;;5.40;99.90;;;;;;5036786;28;19941;-78
2023/01/30 05:08:40;;;;;;;;;;;5.40;99.90;;;;;;5019061;28;19920;-79
2023/01/30 05:11:06;;;;;;;;;;;5.40;99.90;;;;;;5018636;28;19917;-79
2023/01/30 05:13:31;;;;;;;;;;;5.40;99.90;;;;;;5017842;28;20006;-79
2023/01/30 05:15:57;;;;;;;;;;;5.40;99.90;;;;;;5036612;28;20355;-80
2023/01/30 05:18:22;;;;;;;;;;;5.50;99.90;;;;;;5036288;28;19916;-79
2023/01/30 05:20:48;;;;;;;;;;;5.50;99.90;;;;;;5035831;28;19909;-80
2023/01/30 05:23:13;;;;;;;;;;;5.40;99.90;;;;;;5036726;28;19919;-80
2023/01/30 05:25:42;;;;;;;;;;;5.50;99.90;;;;;;5035793;28;19913;-80
2023/01/30 05:28:07;;;;;;;;;;;5.50;99.90;;;;;;5018608;28;19909;-77
2023/01/30 05:30:33;;;;;;;;;;;5.50;99.90;;;;;;5036395;28;20260;-79
2023/01/30 05:32:58;;;;;;;;;;;5.50;99.90;;;;;;5036046;28;19949;-79
2023/01/30 05:35:24;;;;;;;;;;;5.50;99.90;;;;;;5035611;28;19909;-79
2023/01/30 05:37:49;;;;;;;;;;;5.50;99.90;;;;;;5036092;28;19955;-79
2023/01/30 05:40:15;;;;;;;;;;;5.50;99.90;;;;;;5018178;28;19909;-79
2023/01/30 05:42:40;;;;;;;;;;;5.60;99.90;;;;;;5035735;28;19917;-79
2023/01/30 05:45:06;;;;;;;;;;;5.60;99.90;;;;;;5017851;28;19952;-79
2023/01/30 05:47:32;;;;;;;;;;;5.60;99.90;;;;;;5035554;28;19913;-79
2023/01/30 05:49:57;;;;;;;;;;;5.50;99.90;;;;;;5018305;28;20044;-80
2023/01/30 05:52:23;;;;;;;;;;;5.60;99.90;;;;;;5017849;28;19916;-79
2023/01/30 05:54:48;;;;;;;;;;;5.60;99.90;;;;;;5017570;28;20317;-79
2023/01/30 05:57:13;;;;;;;;;;;5.70;99.90;;;;;;5017886;28;19985;-80
2023/01/30 05:59:39;;;;;;;;;;;5.60;99.90;;;;;;5035556;28;20003;-80
2023/01/30 06:02:04;;;;;;;;;;;5.70;99.90;;;;;;5017652;28;19935;-79
2023/01/30 06:04:30;;;;;;;;;;;5.60;99.90;;;;;;5017643;28;19913;-79
2023/01/30 06:06:55;;;;;;;;;;;5.70;99.90;;;;;;5035541;28;20391;-79
2023/01/30 06:09:21;;;;;;;;;;;5.70;99.90;;;;;;5018502;28;19908;-79
2023/01/30 06:11:46;;;;;;;;;;;5.70;99.90;;;;;;5036152;28;19909;-79
2023/01/30 06:14:12;;;;;;;;;;;5.80;99.90;;;;;;5036150;28;20596;-79
2023/01/30 06:16:37;;;;;;;;;;;5.80;99.90;;;;;;5036944;28;19944;-80
2023/01/30 06:19:03;;;;;;;;;;;5.90;99.90;;;;;;5018847;28;19910;-80
2023/01/30 06:21:28;;;;;;;;;;;5.90;99.90;;;;;;5036832;28;19909;-79
2023/01/30 06:23:54;;;;;;;;;;;5.90;99.90;;;;;;5036213;28;20004;-79
2023/01/30 06:26:19;;;;;;;;;;;6.00;99.90;;;;;;5018387;28;19909;-80
2023/01/30 06:28:45;;;;;;;;;;;6.00;99.90;;;;;;5036355;28;19952;-79
2023/01/30 06:31:10;;;;;;;;;;;6.10;99.90;;;;;;5018132;28;19909;-79
2023/01/30 06:33:36;;;;;;;;;;;6.10;99.90;;;;;;5018748;28;19932;-79
2023/01/30 06:36:01;;;;;;;;;;;6.10;99.90;;;;;;5036034;28;19913;-80
2023/01/30 06:38:27;;;;;;;;;;;6.10;99.90;;;;;;5036990;28;19909;-79
2023/01/30 06:40:52;;;;;;;;;;;6.10;99.90;;;;;;5036369;28;19916;-79
2023/01/30 06:43:18;;;;;;;;;;;6.20;99.90;;;;;;5018125;28;19913;-80
2023/01/30 06:45:43;;;;;;;;;;;6.20;99.90;;;;;;5018058;28;19909;-80
2023/01/30 06:48:09;;;;;;;;;;;6.20;99.90;;;;;;5036267;28;20441;-80
2023/01/30 06:50:34;;;;;;;;;;;6.20;99.90;;;;;;5036309;28;19909;-79
2023/01/30 06:53:01;;;;;;;;;;;6.30;99.90;;;;;;5036015;28;19909;-80
2023/01/30 06:55:27;;;;;;;;;;;6.30;99.90;;;;;;5018445;28;19931;-79
2023/01/30 06:58:02;;;;;;;;;;;6.30;99.90;;;;;;5018150;28;20393;-79
2023/01/30 07:00:28;;;;;;;;;;;6.30;99.90;;;;;;5017603;28;19924;-80
2023/01/30 07:02:53;;;;;;;;;;;6.40;99.90;;;;;;5035249;28;19910;-79
2023/01/30 07:05:19;;;;;;;;;;;6.40;99.90;;;;;;5017682;28;19913;-80
2023/01/30 07:07:44;;;;;;;;;;;6.40;99.90;;;;;;5017071;28;19978;-80
2023/01/30 07:10:11;;;;;;;;;;;6.40;99.90;;;;;;5035015;28;20388;-80
2023/01/30 07:12:36;;;;;;;;;;;6.40;99.90;;;;;;5016733;28;19916;-81
2023/01/30 07:15:02;;;;;;;;;;;6.40;99.90;;;;;;5016786;28;19914;-80
2023/01/30 07:17:28;;;;;;;;;;;6.40;99.90;;;;;;5034231;28;19917;-79
2023/01/30 07:19:53;;;;;;;;;;;6.40;99.90;;;;;;5016575;28;19910;-80
2023/01/30 07:22:19;;;;;;;;;;;6.40;99.90;;;;;;5016840;28;19959;-80
2023/01/30 07:24:44;;;;;;;;;;;6.50;99.90;;;;;;5034727;28;19913;-80
2023/01/30 07:27:10;;;;;;;;;;;6.50;99.90;;;;;;5034519;28;19909;-80
2023/01/30 07:29:36;;;;;;;;;;;6.50;99.90;;;;;;5016766;28;19916;-80
2023/01/30 07:32:02;;;;;;;;;;;6.50;99.90;;;;;;5034620;28;19913;-80
2023/01/30 07:34:27;;;;;;;;;;;6.50;99.90;;;;;;5016320;28;19909;-80
2023/01/30 07:36:53;;;;;;;;;;;6.50;99.90;;;;;;5036824;28;19913;-81
2023/01/30 07:39:18;;;;;;;;;;;6.50;99.90;;;;;;5019987;28;19909;-80
2023/01/30 07:41:44;;;;;;;;;;;6.50;99.90;;;;;;5038743;28;20434;-80
2023/01/30 07:44:09;;;;;;;;;;;6.50;99.90;;;;;;5038069;28;19914;-80
2023/01/30 07:46:35;;;;;;;;;;;6.60;99.90;;;;;;5019879;28;19987;-80
2023/01/30 07:49:01;;;;;;;;;;;6.60;99.90;;;;;;5021026;28;20359;-80
2023/01/30 07:51:26;;;;;;;;;;;6.50;99.90;;;;;;5021684;28;19959;-81
2023/01/30 07:53:52;;;;;;;;;;;6.60;99.90;;;;;;5038648;28;19913;-79
2023/01/30 07:56:18;;;;;;;;;;;6.60;99.90;;;;;;5037914;28;19958;-79
2023/01/30 07:58:44;;;;;;;;;;;6.70;99.90;;;;;;5020120;28;19909;-79
2023/01/30 08:01:10;;;;;;;;;;;6.70;99.90;;;;;;5037709;28;20382;-80
2023/01/30 08:03:35;;;;;;;;;;;6.70;99.90;;;;;;5019995;28;19914;-80
2023/01/30 08:06:01;;;;;;;;;;;6.70;99.90;;;;;;5037393;28;19921;-80
2023/01/30 08:08:26;;;;;;;;;;;6.70;99.90;;;;;;5020219;28;19947;-81
2023/01/30 08:10:51;;;;;;;;;;;6.70;99.90;;;;;;5019619;28;19917;-80
2023/01/30 08:13:17;;;;;;;;;;;6.90;99.90;;;;;;5019783;28;20321;-79
2023/01/30 08:15:42;;;;;;;;;;;6.80;99.90;;;;;;5037833;28;19955;-79
2023/01/30 08:18:08;;;;;;;;;;;6.80;99.90;;;;;;5037547;28;19909;-80
2023/01/30 08:20:33;;;;;;;;;;;6.80;99.90;;;;;;5037680;28;19909;-79
2023/01/30 08:23:00;;;;;;;;;;;6.90;99.90;;;;;;5019935;28;19932;-79
2023/01/30 08:25:26;;;;;;;;;;;6.90;99.90;;;;;;5019808;28;19909;-80
2023/01/30 08:27:51;;;;;;;;;;;6.80;99.90;;;;;;5019644;28;19994;-80
2023/01/30 08:30:17;;;;;;;;;;;6.80;99.90;;;;;;5036983;28;19917;-79
2023/01/30 08:32:43;;;;;;;;;;;7.00;99.90;;;;;;5019177;28;19909;-80
2023/01/30 08:35:09;;;;;;;;;;;7.00;99.90;;;;;;5036958;28;19909;-79
2023/01/30 08:37:34;;;;;;;;;;;7.00;99.90;;;;;;5019687;28;19909;-80
2023/01/30 08:40:00;;;;;;;;;;;7.00;99.90;;;;;;5019361;28;19909;-80
2023/01/30 08:42:25;;;;;;;;;;;6.90;99.90;;;;;;5018750;28;19955;-79
2023/01/30 08:44:51;;;;;;;;;;;7.00;99.90;;;;;;5019237;28;19968;-79
2023/01/30 08:47:16;;;;;;;;;;;7.10;99.90;;;;;;5018339;28;19916;-79
2023/01/30 08:49:42;;;;;;;;;;;7.20;99.90;;;;;;5036574;28;20633;-80
2023/01/30 08:52:07;;;;;;;;;;;7.30;99.90;;;;;;5035981;28;19997;-79
2023/01/30 08:54:33;;;;;;;;;;;7.30;99.90;;;;;;5018863;28;19940;-79
2023/01/30 08:56:58;;;;;;;;;;;7.40;99.90;;;;;;5036686;28;20008;-79
2023/01/30 08:59:24;;;;;;;;;;;7.60;99.90;;;;;;5036606;28;20353;-79
2023/01/30 09:01:49;;;;;;;;;;;7.80;99.90;;;;;;5018515;28;19920;-81
2023/01/30 09:04:15;;;;;;;;;;;7.80;99.90;;;;;;5015044;28;19956;-81
2023/01/30 09:06:40;;;;;;;;;;;7.70;99.90;;;;;;5018793;28;19913;-80
2023/01/30 09:09:06;;;;;;;;;;;7.60;99.90;;;;;;5037292;28;19909;-81
2023/01/30 09:11:31;;;;;;;;;;;7.60;99.90;;;;;;5018908;28;20359;-80
2023/01/30 09:13:57;;;;;;;;;;;7.60;99.90;;;;;;5037481;28;19909;-81
2023/01/30 09:16:22;;;;;;;;;;;7.70;99.90;;;;;;5019095;28;19959;-80
2023/01/30 09:18:48;;;;;;;;;;;7.90;99.90;;;;;;5015396;28;19913;-79
2023/01/30 09:21:13;;;;;;;;;;;7.90;99.90;;;;;;5016442;28;19909;-81
2023/01/30 09:23:39;;;;;;;;;;;8.00;99.90;;;;;;5019327;28;19952;-81
2023/01/30 09:26:05;;;;;;;;;;;8.00;99.90;;;;;;5037071;28;19909;-81
2023/01/30 09:28:34;;;;;;;;;;;8.10;99.90;;;;;;5019182;28;19913;-80
2023/01/30 09:31:00;;;;;;;;;;;8.10;99.90;;;;;;5017007;28;19909;-80
2023/01/30 09:33:26;;;;;;;;;;;8.10;99.90;;;;;;5018255;28;19909;-81
2023/01/30 09:35:52;;;;;;;;;;;8.10;99.90;;;;;;5017984;28;20405;-81
2023/01/30 09:38:18;;;;;;;;;;;8.10;99.90;;;;;;5017736;28;19909;-81
2023/01/30 09:40:54;;;;;;;;;;;8.10;99.90;;;;;;5017700;28;19909;-81
2023/01/30 09:43:27;;;;;;;;;;;8.20;99.90;;;;;;5034439;28;19916;-80
2023/01/30 09:46:11;;;;;;;;;;;8.20;99.90;;;;;;5017895;28;19916;-81
2023/01/30 09:48:44;;;;;;;;;;;8.00;99.90;;;;;;5017478;28;20003;-80
2023/01/30 09:51:24;;;;;;;;;;;8.10;99.90;;;;;;5017240;28;19945;-80
2023/01/30 09:54:02;;;;;;;;;;;8.20;99.90;;;;;;5017511;28;19909;-79
2023/01/30 09:56:28;;;;;;;;;;;8.20;99.90;;;;;;5034556;28;20404;-80
2023/01/30 09:58:55;;;;;;;;;;;8.30;99.90;;;;;;5034639;28;19955;-80
2023/01/30 10:01:29;;;;;;;;;;;8.40;99.90;;;;;;5017423;28;19916;-79
2023/01/30 10:04:05;;;;;;;;;;;8.30;99.90;;;;;;5035796;28;19913;-79
2023/01/30 10:06:35;;;;;;;;;;;8.40;99.90;;;;;;5018074;28;19909;-79
2023/01/30 10:09:00;;;;;;;;;;;8.50;99.90;;;;;;5022944;28;19909;-81
2023/01/30 10:11:46;;;;;;;;;;;8.60;99.90;;;;;;5026932;28;19955;-80
2023/01/30 10:14:12;;;;;;;;;;;8.80;99.90;;;;;;5030080;28;19917;-80
2023/01/30 10:16:57;;;;;;;;;;;9.00;99.90;;;;;;5029800;28;19909;-80
2023/01/30 10:19:31;;;;;;;;;;;9.10;99.90;;;;;;5027086;28;19936;-81
2023/01/30 10:22:15;;;;;;;;;;;9.10;99.90;;;;;;5023333;28;19924;-80
2023/01/30 10:24:46;;;;;;;;;;;9.00;99.90;;;;;;5037087;28;20387;-80
2023/01/30 10:27:14;;;;;;;;;;;8.90;99.90;;;;;;5023817;28;19913;-81
2023/01/30 10:29:41;;;;;;;;;;;8.80;99.90;;;;;;5021083;28;19933;-80
2023/01/30 10:32:18;;;;;;;;;;;8.80;99.90;;;;;;5038108;28;20318;-82
2023/01/30 10:34:47;;;;;;;;;;;8.80;99.90;;;;;;5021722;28;19948;-81
2023/01/30 10:37:23;;;;;;;;;;;9.00;99.90;;;;;;5020468;28;19916;-81
2023/01/30 10:39:54;;;;;;;;;;;9.00;99.90;;;;;;5020128;28;19913;-81
2023/01/30 10:42:27;;;;;;;;;;;9.00;99.90;;;;;;5019541;28;19910;-81
2023/01/30 10:44:53;;;;;;;;;;;8.90;99.90;;;;;;5019751;28;19936;-81
2023/01/30 10:47:29;;;;;;;;;;;9.00;99.90;;;;;;5037157;28;20008;-80
2023/01/30 10:49:57;;;;;;;;;;;9.00;99.90;;;;;;5037244;28;20333;-81
2023/01/30 10:52:46;;;;;;;;;;;8.80;99.90;;;;;;5019033;28;19909;-81
2023/01/30 10:55:32;;;;;;;;;;;8.70;99.90;;;;;;5013923;28;20359;-81
2023/01/30 10:58:01;;;;;;;;;;;8.80;99.90;;;;;;5012111;28;20367;-81
2023/01/30 11:00:29;;;;;;;;;;;8.80;99.90;;;;;;5037604;28;20287;-80
2023/01/30 11:03:07;;;;;;;;;;;8.80;99.90;;;;;;5037168;28;19953;-79
2023/01/30 11:05:53;;;;;;;;;;;8.70;99.90;;;;;;5037140;28;19920;-80
2023/01/30 11:08:26;;;;;;;;;;;8.70;99.90;;;;;;5019568;28;19917;-80
2023/01/30 11:10:52;;;;;;;;;;;8.70;99.90;;;;;;5036682;28;19913;-79
2023/01/30 11:13:19;;;;;;;;;;;8.50;99.90;;;;;;5030065;28;20286;-79
2023/01/30 11:15:46;;;;;;;;;;;8.50;99.90;;;;;;5056506;28;19916;-79
2023/01/30 11:18:13;;;;;;;;;;;8.50;99.90;;;;;;5038521;28;19975;-80
2023/01/30 11:20:39;;;;;;;;;;;8.60;99.90;;;;;;5056926;28;19934;-79
2023/01/30 11:23:07;;;;;;;;;;;8.50;99.90;;;;;;5037756;28;20003;-79
2023/01/30 11:25:46;;;;;;;;;;;8.50;99.90;;;;;;5038975;28;20377;-78
2023/01/30 11:28:12;;;;;;;;;;;8.50;99.90;;;;;;5038651;28;19947;-79
2023/01/30 11:30:40;;;;;;;;;;;8.50;99.90;;;;;;5039177;28;19909;-79
2023/01/30 11:33:10;;;;;;;;;;;8.40;99.90;;;;;;5057153;28;20389;-79
2023/01/30 11:35:56;;;;;;;;;;;8.30;99.90;;;;;;5057389;28;19971;-81
2023/01/30 11:38:26;;;;;;;;;;;8.40;99.90;;;;;;4999745;28;19921;-80
2023/01/30 11:41:02;;;;;;;;;;;8.40;99.90;;;;;;5000191;28;19913;-81
2023/01/30 11:43:28;;;;;;;;;;;8.40;99.90;;;;;;5017740;28;19913;-81
2023/01/30 11:45:54;;;;;;;;;;;8.50;99.90;;;;;;5000584;28;19917;-80
2023/01/30 11:48:21;;;;;;;;;;;8.40;99.90;;;;;;4999438;28;19937;-80
2023/01/30 11:50:49;;;;;;;;;;;8.50;99.90;;;;;;4999735;28;20001;-80
2023/01/30 11:53:17;;;;;;;;;;;8.50;99.90;;;;;;4999558;28;20286;-80
2023/01/30 11:55:44;;;;;;;;;;;8.50;99.90;;;;;;4999548;28;19909;-80
2023/01/30 11:58:12;;;;;;;;;;;8.70;99.90;;;;;;5000161;28;19916;-80
2023/01/30 12:00:39;;;;;;;;;;;8.70;99.90;;;;;;4999909;28;19924;-80
2023/01/30 12:03:09;;;;;;;;;;;8.80;99.90;;;;;;5016910;28;19914;-80
2023/01/30 12:05:38;;;;;;;;;;;8.80;99.90;;;;;;5016999;28;19914;-80
2023/01/30 12:08:19;;;;;;;;;;;8.90;99.90;;;;;;4999637;28;19916;-80
2023/01/30 12:31:43;;;;;;;;;;;8.30;99.90;;;;;;5033742;28;19926;-81
2023/01/30 12:40:29;;;;;;;;;;;8.50;99.90;;;;;;5039837;28;20374;-81
2023/01/30 12:43:46;;;;;;;;;;;;;;;;;;;;;
2023/01/30 12:46:35;;;;;;;;;;;8.50;99.90;;;;;;5015853;28;19917;-80
2023/01/30 12:56:01;;;;;;;;;;;9.10;99.90;;;;;;4952603;28;19910;-80
2023/01/30 12:58:37;;;;;;;;;;;;;;;;;;;;;
2023/01/30 13:01:26;;;;;;;;;;;9.70;99.90;;;;;;5018494;28;20012;-81
2023/01/30 13:04:20;;;;;;;;;;;;;;;;;;;;;
2023/01/30 13:36:20;;;;;;;;;;;9.40;99.90;;;;;;5035902;28;19926;-79
2023/01/30 13:38:52;;;;;;;;;;;9.30;99.90;;;;;;5019800;28;19909;-79
2023/01/30 13:41:18;;;;;;;;;;;9.30;99.90;;;;;;5036909;28;20329;-80
2023/01/30 13:43:49;;;;;;;;;;;9.30;99.90;;;;;;5019282;28;19913;-79
2023/01/30 13:46:22;;;;;;;;;;;9.30;99.90;;;;;;5020242;28;19963;-79
2023/01/30 13:49:06;;;;;;;;;;;9.30;99.90;;;;;;5019247;28;19909;-79
2023/01/30 13:51:35;;;;;;;;;;;9.20;99.90;;;;;;5037331;28;20370;-80
2023/01/30 13:54:18;;;;;;;;;;;9.10;99.90;;;;;;5019256;28;20008;-79
2023/01/30 13:56:55;;;;;;;;;;;9.00;99.90;;;;;;5036838;28;19909;-78
2023/01/30 13:59:39;;;;;;;;;;;8.90;99.90;;;;;;5019055;28;19912;-79
2023/01/30 14:02:05;;;;;;;;;;;8.90;99.90;;;;;;5019337;28;19952;-80
2023/01/30 14:04:38;;;;;;;;;;;9.00;99.90;;;;;;5019494;28;19917;-79
2023/01/30 14:07:15;;;;;;;;;;;9.00;99.90;;;;;;5037018;28;20336;-79
2023/01/30 14:09:43;;;;;;;;;;;9.00;99.90;;;;;;5019041;28;19963;-79
2023/01/30 14:12:19;;;;;;;;;;;9.00;99.90;;;;;;5018623;28;19920;-79
2023/01/30 14:14:59;;;;;;;;;;;9.20;99.90;;;;;;5019181;28;19909;-80
2023/01/30 14:17:25;;;;;;;;;;;9.30;99.90;;;;;;5036837;28;20289;-79
2023/01/30 14:20:12;;;;;;;;;;;9.40;99.90;;;;;;5019104;28;19947;-79
2023/01/30 14:22:58;;;;;;;;;;;9.40;99.90;;;;;;5036758;28;19916;-79
2023/01/30 14:25:23;;;;;;;;;;;9.40;99.90;;;;;;5017562;28;19913;-79
2023/01/30 14:27:51;;;;;;;;;;;9.40;99.90;;;;;;5019002;28;19925;-79
2023/01/30 14:30:41;;;;;;;;;;;9.30;99.90;;;;;;5036789;28;19913;-79
2023/01/30 14:33:22;;;;;;;;;;;9.20;99.90;;;;;;5018787;28;19983;-79
2023/01/30 14:35:48;;;;;;;;;;;9.20;99.90;;;;;;5036465;28;19924;-79
2023/01/30 14:38:20;;;;;;;;;;;9.20;99.90;;;;;;5019089;28;19951;-79
2023/01/30 14:40:47;;;;;;;;;;;9.10;99.90;;;;;;5018307;28;19909;-79
2023/01/30 14:43:16;;;;;;;;;;;9.00;99.90;;;;;;5036575;28;19957;-79
2023/01/30 14:45:47;;;;;;;;;;;9.10;99.90;;;;;;5036431;28;20374;-79
2023/01/30 14:48:25;;;;;;;;;;;9.20;99.90;;;;;;5036684;28;19909;-79
2023/01/30 14:51:08;;;;;;;;;;;9.20;99.90;;;;;;5035761;28;19909;-78
2023/01/30 14:53:34;;;;;;;;;;;9.10;99.90;;;;;;5019114;28;20375;-79
2023/01/30 14:56:01;;;;;;;;;;;9.20;99.90;;;;;;5018327;28;19952;-79
2023/01/30 14:58:27;;;;;;;;;;;9.30;99.90;;;;;;5018568;28;20358;-80
2023/01/30 15:00:57;;;;;;;;;;;9.30;99.90;;;;;;5018272;28;19952;-80
2023/01/30 15:03:23;;;;;;;;;;;9.30;99.90;;;;;;5015085;28;19992;-80
2023/01/30 15:05:50;;;;;;;;;;;9.20;99.90;;;;;;5016952;28;20373;-80
2023/01/30 15:08:23;;;;;;;;;;;9.20;99.90;;;;;;5035632;28;19952;-78
2023/01/30 15:10:55;;;;;;;;;;;9.10;99.90;;;;;;5016939;28;20031;-79
2023/01/30 15:13:23;;;;;;;;;;;9.00;99.90;;;;;;5014400;28;20318;-80
2023/01/30 15:15:51;;;;;;;;;;;9.00;99.90;;;;;;5020823;28;19913;-81
2023/01/30 15:18:25;;;;;;;;;;;8.90;99.90;;;;;;5032809;28;19932;-80
2023/01/30 15:20:57;;;;;;;;;;;8.80;99.90;;;;;;5033185;28;19909;-80
2023/01/30 15:23:41;;;;;;;;;;;8.80;99.90;;;;;;5033921;28;20445;-80
2023/01/30 15:26:20;;;;;;;;;;;8.80;99.90;;;;;;5035219;28;19932;-80
2023/01/30 15:28:48;;;;;;;;;;;8.70;99.90;;;;;;5034334;28;19910;-80
2023/01/30 15:31:16;;;;;;;;;;;8.70;99.90;;;;;;5017559;28;19909;-80
2023/01/30 15:33:42;;;;;;;;;;;8.70;99.90;;;;;;5016589;28;19917;-81
2023/01/30 15:36:28;;;;;;;;;;;8.60;99.90;;;;;;5016915;28;19929;-80
2023/01/30 15:38:55;;;;;;;;;;;8.70;99.90;;;;;;5034669;28;19951;-79
2023/01/30 15:41:20;;;;;;;;;;;8.60;99.90;;;;;;5034661;28;19913;-79
2023/01/30 15:44:04;;;;;;;;;;;8.50;99.90;;;;;;5035748;28;20381;-80
2023/01/30 15:46:36;;;;;;;;;;;8.50;99.90;;;;;;5035084;28;19932;-79
2023/01/30 15:49:07;;;;;;;;;;;8.40;99.90;;;;;;5034846;28;19909;-79
2023/01/30 15:51:33;;;;;;;;;;;8.40;99.90;;;;;;5034997;28;19992;-80